createdAt,value
2017-06-23T00:00:23.189Z,100993.88
2017-06-23T00:02:57.133Z,100991.95
2017-06-23T00:05:33.721Z,100994.58
2017-06-23T00:08:07.834Z,100993.22
2017-06-23T00:10:41.039Z,101000.97
2017-06-23T00:13:17.009Z,100996.73
2017-06-23T00:15:53.439Z,100997.69
2017-06-23T00:18:27.948Z,100998.48
2017-06-23T00:21:01.765Z,100996.81
2017-06-23T00:23:36.889Z,101002.19
2017-06-23T00:26:10.400Z,101005.09
2017-06-23T00:28:45.435Z,101003.45
2017-06-23T00:31:19.797Z,101009.17
2017-06-23T00:33:49.869Z,101002.23
2017-06-23T00:36:24.694Z,101000.69
2017-06-23T00:39:00.342Z,100998.31
2017-06-23T00:41:33.676Z,101000.86
2017-06-23T00:44:09.593Z,101000.75
2017-06-23T00:46:43.611Z,100996.39
2017-06-23T00:49:18.123Z,100996.45
2017-06-23T00:51:54.698Z,101004.94
2017-06-23T00:54:30.520Z,101001.59
2017-06-23T00:57:08.488Z,101000.23
2017-06-23T00:59:41.509Z,101001.52
2017-06-23T01:02:14.932Z,101004.62
2017-06-23T01:04:49.865Z,101002.77
2017-06-23T01:07:24.074Z,101001.66
2017-06-23T01:09:58.899Z,101003.31
2017-06-23T01:12:34.303Z,101005.33
2017-06-23T01:15:09.482Z,101000.83
2017-06-23T01:17:46.355Z,101008.82
2017-06-23T01:20:22.107Z,101007.22
2017-06-23T01:22:56.012Z,101003.58
2017-06-23T01:25:29.001Z,101004.28
2017-06-23T01:28:03.121Z,101003.23
2017-06-23T01:30:39.070Z,100996.35
2017-06-23T01:33:15.535Z,100998.03
2017-06-23T01:35:52.000Z,101001.14
2017-06-23T01:38:26.112Z,100999.39
2017-06-23T01:41:02.577Z,100999.59
2017-06-23T01:43:37.937Z,101000.44
2017-06-23T01:46:13.905Z,100997.98
2017-06-23T02:06:04.786Z,100987.16
2017-06-23T02:08:36.640Z,100983.91
2017-06-23T02:11:13.609Z,100982.45
2017-06-23T02:13:52.577Z,100983.32
2017-06-23T02:16:27.989Z,100987.90
2017-06-23T02:19:02.518Z,100981.83
2017-06-23T02:21:37.489Z,100983.81
2017-06-23T02:24:15.453Z,100989.65
2017-06-23T02:26:48.632Z,100985.70
2017-06-23T02:29:24.181Z,100983.08
2017-06-23T02:31:58.903Z,100981.33
2017-06-23T02:34:35.579Z,100979.79
2017-06-23T02:37:10.097Z,100979.76
2017-06-23T02:39:45.852Z,100976.93
2017-06-23T02:42:21.237Z,100978.33
2017-06-23T02:44:56.019Z,100983.32
2017-06-23T02:47:33.174Z,100983.00
2017-06-23T02:50:08.746Z,100985.00
2017-06-23T02:52:42.656Z,100983.95
2017-06-23T02:55:17.082Z,100984.69
2017-06-23T02:57:52.073Z,100986.39
2017-06-23T03:00:26.022Z,100990.40
2017-06-23T03:02:58.795Z,100985.10
2017-06-23T03:05:34.747Z,100982.90
2017-06-23T03:08:08.123Z,100987.54
2017-06-23T03:10:46.896Z,100983.70
2017-06-23T03:13:30.863Z,100983.70
2017-06-23T03:16:06.145Z,100987.02
2017-06-23T03:18:41.803Z,100988.38
2017-06-23T03:21:17.033Z,100993.37
2017-06-23T03:23:49.508Z,100990.61
2017-06-23T03:26:22.293Z,100987.44
2017-06-23T03:28:55.987Z,100984.53
2017-06-23T03:31:31.327Z,100987.26
2017-06-23T03:34:08.925Z,100991.77
2017-06-23T03:36:44.649Z,100990.16
2017-06-23T03:39:19.557Z,100991.77
2017-06-23T03:41:52.383Z,100995.11
2017-06-23T03:44:30.286Z,100996.45
2017-06-23T03:47:06.463Z,100995.29
2017-06-23T03:49:42.197Z,100987.98
2017-06-23T03:52:18.400Z,100991.48
2017-06-23T03:54:53.392Z,100998.33
2017-06-23T03:57:25.339Z,100998.02
2017-06-23T04:00:01.097Z,101005.88
2017-06-23T04:02:36.237Z,100997.73
2017-06-23T04:05:12.700Z,101002.86
2017-06-23T04:07:47.222Z,101002.83
2017-06-23T04:10:24.184Z,101008.28
2017-06-23T04:13:00.055Z,101012.57
2017-06-23T04:15:36.122Z,101015.55
2017-06-23T04:18:12.884Z,101016.84
2017-06-23T04:20:49.060Z,101015.92
2017-06-23T04:23:23.466Z,101023.26
2017-06-23T04:25:58.804Z,101021.03
2017-06-23T04:28:34.349Z,101031.64
2017-06-23T04:31:09.968Z,101035.38
2017-06-23T04:33:42.370Z,101033.63
2017-06-23T04:36:19.454Z,101034.67
2017-06-23T04:38:53.360Z,101037.48
2017-06-23T04:41:27.814Z,101040.44
2017-06-23T04:43:59.737Z,101039.80
2017-06-23T04:46:36.207Z,101040.36
2017-06-23T04:49:10.933Z,101049.05
2017-06-23T04:51:48.420Z,101046.91
2017-06-23T04:54:22.534Z,101053.34
2017-06-23T04:56:56.630Z,101054.59
2017-06-23T04:59:34.546Z,101057.91
2017-06-23T05:02:07.122Z,101062.95
2017-06-23T05:04:42.537Z,101066.52
2017-06-23T05:07:18.317Z,101063.52
2017-06-23T05:09:55.483Z,101064.63
2017-06-23T05:12:32.997Z,101071.44
2017-06-23T05:15:02.806Z,101079.88
2017-06-23T05:17:36.384Z,101080.87
2017-06-23T05:20:11.843Z,101081.70
2017-06-23T05:22:47.323Z,101080.63
2017-06-23T05:25:23.292Z,101081.97
2017-06-23T05:27:57.558Z,101081.66
2017-06-23T05:30:29.637Z,101081.55
2017-06-23T05:33:06.203Z,101081.26
2017-06-23T05:35:41.172Z,101081.23
2017-06-23T05:38:17.491Z,101075.86
2017-06-23T05:40:53.030Z,101080.55
2017-06-23T05:43:27.859Z,101091.86
2017-06-23T05:46:01.256Z,101100.44
2017-06-23T05:48:34.017Z,101105.71
2017-06-23T05:51:08.992Z,101097.49
2017-06-23T05:53:43.596Z,101112.97
2017-06-23T05:56:19.146Z,101107.39
2017-06-23T05:58:53.896Z,101117.56
2017-06-23T06:01:29.863Z,101117.04
2017-06-23T06:04:04.342Z,101120.81
2017-06-23T06:06:38.452Z,101121.97
2017-06-23T06:09:12.787Z,101124.13
2017-06-23T06:11:47.289Z,101127.44
2017-06-23T06:14:25.189Z,101128.86
2017-06-23T06:17:00.227Z,101125.94
2017-06-23T06:19:33.410Z,101126.32
2017-06-23T06:22:06.092Z,101128.52
2017-06-23T06:24:42.966Z,101129.98
2017-06-23T06:27:15.237Z,101142.23
2017-06-23T06:29:53.524Z,101141.84
2017-06-23T06:32:27.351Z,101148.95
2017-06-23T06:35:05.463Z,101164.31
2017-06-23T06:37:40.433Z,101156.00
2017-06-23T06:40:14.403Z,101166.34
2017-06-23T06:42:47.370Z,101165.67
2017-06-23T06:45:22.822Z,101163.81
2017-06-23T06:47:57.860Z,101165.10
2017-06-23T06:50:36.065Z,101169.20
2017-06-23T06:53:12.247Z,101174.44
2017-06-23T06:55:49.217Z,101171.42
2017-06-23T06:58:27.200Z,101174.95
2017-06-23T07:01:01.115Z,101172.39
2017-06-23T07:03:34.721Z,101177.42
2017-06-23T07:06:10.973Z,101176.13
2017-06-23T07:08:48.468Z,101166.78
2017-06-23T07:11:23.503Z,101172.86
2017-06-23T07:13:58.636Z,101166.70
2017-06-23T07:16:31.622Z,101176.04
2017-06-23T07:19:09.741Z,101175.64
2017-06-23T07:21:46.400Z,101169.98
2017-06-23T07:24:22.876Z,101163.26
2017-06-23T07:26:57.849Z,101164.94
2017-06-23T07:29:33.141Z,101173.84
2017-06-23T07:32:08.274Z,101180.33
2017-06-23T07:34:44.770Z,101173.42
2017-06-23T07:37:20.181Z,101171.93
2017-06-23T07:39:55.693Z,101178.21
2017-06-23T07:42:34.661Z,101179.61
2017-06-23T07:45:07.123Z,101179.08
2017-06-23T07:47:38.653Z,101181.55
2017-06-23T07:50:13.571Z,101173.56
2017-06-23T07:52:48.233Z,101177.40
2017-06-23T07:55:21.514Z,101176.21
2017-06-23T07:57:53.530Z,101183.19
2017-06-23T08:00:25.454Z,101183.04
2017-06-23T08:02:59.866Z,101181.86
2017-06-23T08:05:33.678Z,101180.91
2017-06-23T08:08:09.116Z,101192.03
2017-06-23T08:10:46.331Z,101191.73
2017-06-23T08:13:19.897Z,101194.28
2017-06-23T08:15:53.909Z,101195.63
2017-06-23T08:18:28.020Z,101199.29
2017-06-23T08:21:05.212Z,101201.02
2017-06-23T08:23:39.227Z,101205.81
2017-06-23T08:26:10.453Z,101204.00
2017-06-23T08:28:47.850Z,101204.13
2017-06-23T08:31:23.098Z,101203.03
2017-06-23T08:33:57.602Z,101211.60
2017-06-23T08:36:31.031Z,101215.07
2017-06-23T08:39:04.596Z,101213.39
2017-06-23T08:41:40.976Z,101216.37
2017-06-23T08:44:16.941Z,101218.66
2017-06-23T08:46:50.909Z,101226.49
2017-06-23T08:49:24.427Z,101224.82
2017-06-23T08:52:00.894Z,101230.41
2017-06-23T08:54:34.902Z,101232.91
2017-06-23T08:57:06.246Z,101233.53
2017-06-23T08:59:40.566Z,101229.76
2017-06-23T09:02:12.833Z,101236.41
2017-06-23T09:04:47.698Z,101234.83
2017-06-23T09:07:24.665Z,101235.02
2017-06-23T09:09:57.930Z,101228.93
2017-06-23T09:35:02.336Z,101235.86
2017-06-23T09:37:33.633Z,101233.00
2017-06-23T09:40:07.852Z,101237.36
2017-06-23T09:42:40.836Z,101240.94
2017-06-23T09:45:13.716Z,101238.19
2017-06-23T09:47:47.731Z,101242.84
2017-06-23T09:50:22.563Z,101240.87
2017-06-23T09:52:56.470Z,101238.61
2017-06-23T09:55:31.093Z,101244.66
2017-06-23T09:58:06.059Z,101239.98
2017-06-23T10:00:39.082Z,101247.64
2017-06-23T10:03:11.990Z,101257.17
2017-06-23T10:05:49.971Z,101253.83
2017-06-23T10:08:25.434Z,101253.39
2017-06-23T10:11:01.699Z,101257.47
2017-06-23T10:13:35.396Z,101262.52
2017-06-23T10:16:08.855Z,101254.76
2017-06-23T10:18:40.445Z,101255.13
2017-06-23T10:21:12.308Z,101259.45
2017-06-23T10:23:43.551Z,101260.41
2017-06-23T10:26:19.732Z,101250.47
2017-06-23T10:28:55.254Z,101252.11
2017-06-23T10:31:31.697Z,101249.89
2017-06-23T10:34:09.007Z,101251.22
2017-06-23T10:36:42.200Z,101254.23
2017-06-23T10:39:18.577Z,101251.16
2017-06-23T10:41:56.547Z,101257.42
2017-06-23T10:44:34.158Z,101249.09
2017-06-23T10:47:07.860Z,101248.28
2017-06-23T10:49:43.454Z,101244.98
2017-06-23T10:52:17.670Z,101248.85
2017-06-23T10:54:51.413Z,101244.16
2017-06-23T10:57:27.364Z,101246.05
2017-06-23T11:00:01.329Z,101246.56
2017-06-23T11:02:32.534Z,101240.27
2017-06-23T11:05:06.647Z,101239.22
2017-06-23T11:07:41.240Z,101244.55
2017-06-23T11:10:16.210Z,101241.60
2017-06-23T11:12:53.176Z,101234.34
2017-06-23T11:15:28.148Z,101233.13
2017-06-23T11:18:04.475Z,101235.47
2017-06-23T11:20:40.535Z,101242.42
2017-06-23T11:23:17.611Z,101235.16
2017-06-23T11:25:51.624Z,101241.25
2017-06-23T11:28:29.993Z,101241.23
2017-06-23T11:31:05.578Z,101240.44
2017-06-23T11:33:40.931Z,101236.25
2017-06-23T11:36:16.901Z,101238.14
2017-06-23T11:38:53.869Z,101238.09
2017-06-23T11:41:27.150Z,101237.70
2017-06-23T11:43:59.808Z,101235.22
2017-06-23T11:46:37.314Z,101242.56
2017-06-23T11:49:12.659Z,101234.96
2017-06-23T11:51:51.717Z,101230.88
2017-06-23T11:54:24.684Z,101230.53
2017-06-23T11:56:58.653Z,101236.77
2017-06-23T11:59:31.657Z,101226.49
2017-06-23T12:02:06.290Z,101231.31
2017-06-23T12:04:42.035Z,101223.13
2017-06-23T12:07:12.767Z,101230.23
2017-06-23T12:09:48.501Z,101219.61
2017-06-23T12:12:21.606Z,101215.15
2017-06-23T12:14:56.028Z,101215.25
2017-06-23T12:17:32.184Z,101212.05
2017-06-23T12:20:07.016Z,101217.73
2017-06-23T12:22:39.998Z,101214.67
2017-06-23T12:25:17.902Z,101215.92
2017-06-23T12:27:51.712Z,101211.41
2017-06-23T12:30:28.255Z,101216.80
2017-06-23T12:33:01.771Z,101216.59
2017-06-23T12:35:36.096Z,101208.12
2017-06-23T12:38:12.163Z,101210.48
2017-06-23T12:40:49.140Z,101210.27
2017-06-23T12:43:21.802Z,101214.89
2017-06-23T12:46:00.071Z,101205.62
2017-06-23T12:48:33.610Z,101217.27
2017-06-23T13:08:27.805Z,101212.72
2017-06-23T13:11:03.446Z,101220.03
2017-06-23T13:13:38.482Z,101218.98
2017-06-23T13:16:14.712Z,101213.59
2017-06-23T13:18:52.681Z,101205.12
2017-06-23T13:21:25.014Z,101217.37
2017-06-23T13:23:57.401Z,101214.92
2017-06-23T13:26:30.785Z,101201.03
2017-06-23T13:29:05.609Z,101214.02
2017-06-23T13:31:40.639Z,101206.11
2017-06-23T13:34:15.774Z,101208.03
2017-06-23T13:36:49.691Z,101208.34
2017-06-23T13:39:21.642Z,101203.52
2017-06-23T13:41:56.585Z,101202.61
2017-06-23T13:44:29.375Z,101202.11
2017-06-23T13:47:01.730Z,101202.39
2017-06-23T13:49:36.324Z,101202.29
2017-06-23T13:52:11.286Z,101196.97
2017-06-23T13:54:46.218Z,101192.77
2017-06-23T13:57:18.683Z,101191.40
2017-06-23T13:59:55.191Z,101191.44
2017-06-23T14:02:31.108Z,101188.81
2017-06-23T14:05:05.129Z,101191.38
2017-06-23T14:07:38.305Z,101192.31
2017-06-23T14:10:12.625Z,101194.34
2017-06-23T14:12:44.071Z,101201.06
2017-06-23T14:15:17.779Z,101193.75
2017-06-23T14:17:51.052Z,101190.70
2017-06-23T14:20:27.953Z,101198.30
2017-06-23T14:23:03.080Z,101201.27
2017-06-23T14:25:37.406Z,101191.16
2017-06-23T14:28:11.714Z,101195.19
2017-06-23T14:30:48.835Z,101200.16
2017-06-23T14:33:20.041Z,101194.06
2017-06-23T14:35:54.156Z,101197.66
2017-06-23T14:38:28.743Z,101197.92
2017-06-23T14:41:01.251Z,101191.62
2017-06-23T14:43:34.542Z,101189.45
2017-06-23T14:46:08.141Z,101187.34
2017-06-23T14:48:40.210Z,101185.91
2017-06-23T14:51:10.730Z,101185.98
2017-06-23T15:11:00.114Z,101182.72
2017-06-23T15:13:34.340Z,101190.15
2017-06-23T15:16:08.306Z,101190.53
2017-06-23T15:18:39.355Z,101187.38
2017-06-23T15:21:12.152Z,101186.93
2017-06-23T15:23:47.213Z,101180.05
2017-06-23T15:26:19.655Z,101174.97
2017-06-23T15:28:56.152Z,101181.66
2017-06-23T15:31:29.423Z,101177.36
2017-06-23T15:34:04.550Z,101179.70
2017-06-23T15:36:37.928Z,101178.86
2017-06-23T15:39:12.679Z,101182.56
2017-06-23T15:41:44.434Z,101181.06
2017-06-23T15:44:21.967Z,101180.09
2017-06-23T15:46:53.164Z,101181.03
2017-06-23T15:49:27.906Z,101174.70
2017-06-23T15:52:04.887Z,101178.30
2017-06-23T15:54:40.845Z,101176.58
2017-06-23T15:57:13.893Z,101173.75
2017-06-23T15:59:49.784Z,101180.15
2017-06-23T16:02:25.752Z,101175.78
2017-06-23T16:04:59.118Z,101174.10
2017-06-23T16:07:31.176Z,101178.69
2017-06-23T16:10:07.704Z,101162.41
2017-06-23T16:12:40.651Z,101167.94
2017-06-23T16:15:16.382Z,101175.50
2017-06-23T16:17:54.572Z,101175.11
2017-06-23T16:20:29.109Z,101172.67
2017-06-23T16:23:03.940Z,101172.67
2017-06-23T16:25:41.433Z,101170.50
2017-06-23T16:28:16.447Z,101170.50
2017-06-23T16:30:50.267Z,101168.92
2017-06-23T16:33:22.330Z,101164.62
2017-06-23T16:35:58.354Z,101158.64
2017-06-23T16:38:30.324Z,101158.33
2017-06-23T16:41:05.314Z,101161.23
2017-06-23T16:43:38.578Z,101160.28
2017-06-23T16:46:10.846Z,101160.48
2017-06-23T16:48:44.789Z,101158.59
2017-06-23T16:51:19.176Z,101165.14
2017-06-23T16:53:55.145Z,101162.41
2017-06-23T16:56:30.473Z,101175.02
2017-06-23T16:59:08.060Z,101168.72
2017-06-23T17:01:42.056Z,101173.69
2017-06-23T17:04:16.797Z,101169.59
2017-06-23T17:06:50.989Z,101166.34
2017-06-23T17:09:22.965Z,101171.87
2017-06-23T17:11:58.930Z,101171.69
2017-06-23T17:14:33.932Z,101177.36
2017-06-23T17:17:11.548Z,101172.11
2017-06-23T17:19:46.837Z,101180.99
2017-06-23T17:22:20.290Z,101178.93
2017-06-23T17:24:55.320Z,101175.47
2017-06-23T17:27:29.533Z,101170.78
2017-06-23T17:30:05.183Z,101176.83
2017-06-23T17:32:39.687Z,101176.97
2017-06-23T17:35:14.227Z,101171.41
2017-06-23T17:37:48.626Z,101171.63
2017-06-23T17:40:24.494Z,101174.91
2017-06-23T17:43:00.247Z,101171.77
2017-06-23T17:45:36.537Z,101176.69
2017-06-23T17:48:12.502Z,101181.03
2017-06-23T17:50:46.777Z,101170.36
2017-06-23T17:53:23.444Z,101176.52
2017-06-23T17:56:02.409Z,101173.09
2017-06-23T17:58:38.414Z,101178.41
2017-06-23T18:01:11.933Z,101172.42
2017-06-23T18:03:48.318Z,101167.77
2017-06-23T18:06:22.310Z,101177.45
2017-06-23T18:08:54.676Z,101178.36
2017-06-23T18:11:33.227Z,101177.28
2017-06-23T18:14:08.529Z,101184.52
2017-06-23T18:16:46.190Z,101185.64
2017-06-23T18:19:22.132Z,101180.61
2017-06-23T18:21:55.112Z,101179.59
2017-06-23T18:24:27.740Z,101188.92
2017-06-23T18:27:01.852Z,101190.84
2017-06-23T18:29:36.788Z,101197.21
2017-06-23T18:32:09.154Z,101195.64
2017-06-23T18:34:42.968Z,101193.78
2017-06-23T18:37:19.917Z,101197.06
2017-06-23T18:39:55.790Z,101203.10
2017-06-23T18:42:32.564Z,101196.70
2017-06-23T18:45:07.393Z,101190.63
2017-06-23T18:47:43.792Z,101191.22
2017-06-23T18:50:17.359Z,101192.41
2017-06-23T18:52:54.730Z,101195.66
2017-06-23T18:55:30.802Z,101201.95
2017-06-23T18:58:08.668Z,101209.61
2017-06-23T19:00:44.635Z,101196.50
2017-06-23T19:03:22.605Z,101207.53
2017-06-23T19:05:55.575Z,101204.11
2017-06-23T19:08:28.328Z,101212.13
2017-06-23T19:11:06.517Z,101209.80
2017-06-23T19:13:42.696Z,101205.84
2017-06-23T19:16:19.459Z,101209.41
2017-06-23T19:18:54.912Z,101211.81
2017-06-23T19:21:30.973Z,101210.66
2017-06-23T19:24:05.379Z,101215.20
2017-06-23T19:26:40.329Z,101213.81
2017-06-23T19:29:13.202Z,101215.83
2017-06-23T19:31:49.157Z,101223.37
2017-06-23T19:34:24.235Z,101225.39
2017-06-23T19:37:00.863Z,101221.74
2017-06-23T19:39:33.437Z,101224.68
2017-06-23T19:42:07.142Z,101229.08
2017-06-23T19:44:42.130Z,101226.95
2017-06-23T19:47:17.718Z,101233.09
2017-06-23T19:49:52.854Z,101236.00
2017-06-23T19:52:29.524Z,101235.48
2017-06-23T19:55:03.738Z,101234.02
2017-06-23T19:57:37.545Z,101233.59
2017-06-23T20:00:10.633Z,101239.02
2017-06-23T20:02:44.848Z,101237.76
2017-06-23T20:05:20.083Z,101241.97
2017-06-23T20:07:54.506Z,101251.44
2017-06-23T20:10:27.804Z,101249.89
2017-06-23T20:13:00.777Z,101245.36
2017-06-23T20:15:34.378Z,101242.39
2017-06-23T20:18:08.724Z,101248.19
2017-06-23T20:20:43.691Z,101243.78
2017-06-23T20:23:18.865Z,101241.62
2017-06-23T20:25:55.620Z,101248.47
2017-06-23T20:28:29.239Z,101253.50
2017-06-23T20:31:02.128Z,101261.36
2017-06-23T20:33:36.646Z,101255.38
2017-06-23T20:36:12.805Z,101267.64
2017-06-23T20:38:47.431Z,101269.23
2017-06-23T20:41:21.850Z,101271.94
2017-06-23T20:43:57.407Z,101263.48
2017-06-23T20:46:33.375Z,101279.30
2017-06-23T20:49:06.345Z,101286.64
2017-06-23T20:51:37.352Z,101281.73
2017-06-23T20:54:26.283Z,101283.22
2017-06-23T20:57:00.756Z,101297.04
2017-06-23T20:59:38.041Z,101287.50
2017-06-23T21:02:14.922Z,101295.81
2017-06-23T21:04:50.054Z,101298.52
2017-06-23T21:07:22.127Z,101292.75
2017-06-23T21:09:58.106Z,101308.93
2017-06-23T21:12:32.078Z,101295.39
2017-06-23T21:15:07.317Z,101305.91
2017-06-23T21:17:41.009Z,101310.42
2017-06-23T21:20:17.976Z,101312.00
2017-06-23T21:22:53.006Z,101318.48
2017-06-23T21:25:27.911Z,101319.62
2017-06-23T21:28:01.461Z,101322.95
2017-06-23T21:30:38.230Z,101326.62
2017-06-23T21:33:11.821Z,101329.49
2017-06-23T21:35:50.788Z,101323.74
2017-06-23T21:38:32.450Z,101325.09
2017-06-23T21:41:21.723Z,101330.66
2017-06-23T21:43:52.346Z,101327.41
2017-06-23T21:46:28.408Z,101326.61
2017-06-23T21:48:58.715Z,101332.17
2017-06-23T21:51:34.603Z,101329.95
2017-06-23T21:54:08.569Z,101321.25
2017-06-23T21:56:40.663Z,101326.40
2017-06-23T21:59:16.210Z,101328.29
2017-06-23T22:01:47.033Z,101333.94
2017-06-23T22:04:17.145Z,101332.55
2017-06-23T22:06:52.420Z,101330.69
2017-06-23T22:09:25.392Z,101335.85
2017-06-23T22:12:01.374Z,101338.23
2017-06-23T22:14:34.212Z,101337.92
2017-06-23T22:17:08.301Z,101334.06
2017-06-23T22:19:44.174Z,101340.37
2017-06-23T22:22:19.236Z,101343.19
2017-06-23T22:24:52.911Z,101340.90
2017-06-23T22:27:26.408Z,101348.92
2017-06-23T22:30:01.852Z,101340.37
2017-06-23T22:32:37.806Z,101343.48
2017-06-23T22:35:11.082Z,101342.44
2017-06-23T22:37:44.052Z,101354.25
2017-06-23T22:40:18.909Z,101352.37
2017-06-23T22:42:54.661Z,101344.55
2017-06-23T22:45:30.962Z,101351.59
2017-06-23T22:48:07.927Z,101358.38
2017-06-23T22:50:41.500Z,101354.73
2017-06-23T22:53:18.792Z,101354.52
2017-06-23T22:55:53.836Z,101352.33
2017-06-23T22:58:31.804Z,101363.00
2017-06-23T23:01:04.778Z,101363.33
2017-06-23T23:03:39.540Z,101359.25
2017-06-23T23:06:13.850Z,101363.16
2017-06-23T23:08:46.363Z,101359.16
2017-06-23T23:11:20.643Z,101358.63
2017-06-23T23:13:56.393Z,101367.00
2017-06-23T23:16:32.590Z,101362.57
2017-06-23T23:19:06.255Z,101367.49
2017-06-23T23:21:43.334Z,101368.16
2017-06-23T23:24:18.986Z,101371.19
2017-06-23T23:26:54.468Z,101375.18
2017-06-23T23:29:29.464Z,101372.87
2017-06-23T23:32:05.621Z,101370.89
2017-06-23T23:34:41.377Z,101371.52
2017-06-23T23:37:14.356Z,101375.41
2017-06-23T23:39:49.813Z,101369.21
2017-06-23T23:42:21.961Z,101375.50
2017-06-23T23:44:56.895Z,101365.13
2017-06-23T23:47:31.223Z,101363.02
2017-06-23T23:50:03.586Z,101366.68
2017-06-23T23:52:43.635Z,101358.41
